sensor_id;sensor_type;location;lat;lon;timestamp;temperature;humidity
11855;DHT22;5987;53.140;8.904;2023-04-10T00:02:45;7.30;99.90
11855;DHT22;5987;53.140;8.904;2023-04-10T00:05:50;7.40;99.90
11855;DHT22;5987;53.140;8.904;2023-04-10T00:08:55;7.40;99.90
11855;DHT22;5987;53.140;8.904;2023-04-10T00:11:59;7.40;99.90
11855;DHT22;5987;53.140;8.904;2023-04-10T00:15:03;7.40;99.90
11855;DHT22;5987;53.140;8.904;2023-04-10T00:18:08;7.40;99.90
11855;DHT22;5987;53.140;8.904;2023-04-10T00:21:13;7.50;99.90
11855;DHT22;5987;53.140;8.904;2023-04-10T00:24:17;7.50;99.90
11855;DHT22;5987;53.140;8.904;2023-04-10T00:27:20;7.50;99.90
11855;DHT22;5987;53.140;8.904;2023-04-10T00:30:24;7.50;99.90
11855;DHT22;5987;53.140;8.904;2023-04-10T00:33:27;7.50;99.90
11855;DHT22;5987;53.140;8.904;2023-04-10T00:36:32;7.50;99.90
11855;DHT22;5987;53.140;8.904;2023-04-10T00:39:36;7.40;99.90
11855;DHT22;5987;53.140;8.904;2023-04-10T00:42:39;7.40;99.90
11855;DHT22;5987;53.140;8.904;2023-04-10T00:45:43;7.40;99.90
11855;DHT22;5987;53.140;8.904;2023-04-10T00:48:47;7.40;99.90
11855;DHT22;5987;53.140;8.904;2023-04-10T00:51:52;7.30;99.90
11855;DHT22;5987;53.140;8.904;2023-04-10T00:54:59;7.20;99.90
11855;DHT22;5987;53.140;8.904;2023-04-10T00:58:02;7.20;99.90
11855;DHT22;5987;53.140;8.904;2023-04-10T01:01:06;7.20;99.90
11855;DHT22;5987;53.140;8.904;2023-04-10T01:04:10;7.20;99.90
11855;DHT22;5987;53.140;8.904;2023-04-10T01:07:28;7.20;99.90
11855;DHT22;5987;53.140;8.904;2023-04-10T01:10:47;7.10;99.90
11855;DHT22;5987;53.140;8.904;2023-04-10T01:14:00;7.10;99.90
11855;DHT22;5987;53.140;8.904;2023-04-10T01:17:13;7.00;99.90
11855;DHT22;5987;53.140;8.904;2023-04-10T01:20:25;7.00;99.90
11855;DHT22;5987;53.140;8.904;2023-04-10T01:24:00;7.10;99.90
11855;DHT22;5987;53.140;8.904;2023-04-10T01:27:35;6.90;99.90
11855;DHT22;5987;53.140;8.904;2023-04-10T01:30:50;7.00;99.90
11855;DHT22;5987;53.140;8.904;2023-04-10T01:33:58;6.90;99.90
11855;DHT22;5987;53.140;8.904;2023-04-10T01:37:12;7.00;99.90
11855;DHT22;5987;53.140;8.904;2023-04-10T01:40:19;6.70;99.90
11855;DHT22;5987;53.140;8.904;2023-04-10T01:43:25;6.80;99.90
11855;DHT22;5987;53.140;8.904;2023-04-10T01:46:34;6.80;99.90
11855;DHT22;5987;53.140;8.904;2023-04-10T01:49:44;6.80;99.90
11855;DHT22;5987;53.140;8.904;2023-04-10T01:52:50;6.80;99.90
11855;DHT22;5987;53.140;8.904;2023-04-10T01:55:54;6.80;99.90
11855;DHT22;5987;53.140;8.904;2023-04-10T01:58:58;6.80;99.90
11855;DHT22;5987;53.140;8.904;2023-04-10T02:02:03;6.80;99.90
11855;DHT22;5987;53.140;8.904;2023-04-10T02:05:09;6.90;99.90
11855;DHT22;5987;53.140;8.904;2023-04-10T02:08:17;6.80;99.90
11855;DHT22;5987;53.140;8.904;2023-04-10T02:11:33;6.90;99.90
11855;DHT22;5987;53.140;8.904;2023-04-10T02:14:45;6.80;99.90
11855;DHT22;5987;53.140;8.904;2023-04-10T02:17:51;6.70;99.90
11855;DHT22;5987;53.140;8.904;2023-04-10T02:20:58;6.80;99.90
11855;DHT22;5987;53.140;8.904;2023-04-10T02:24:02;6.80;99.90
11855;DHT22;5987;53.140;8.904;2023-04-10T02:27:06;6.80;99.90
11855;DHT22;5987;53.140;8.904;2023-04-10T02:30:10;6.70;99.90
11855;DHT22;5987;53.140;8.904;2023-04-10T02:33:15;6.70;99.90
11855;DHT22;5987;53.140;8.904;2023-04-10T02:36:18;6.60;99.90
11855;DHT22;5987;53.140;8.904;2023-04-10T02:39:22;6.70;99.90
11855;DHT22;5987;53.140;8.904;2023-04-10T02:42:26;6.80;99.90
11855;DHT22;5987;53.140;8.904;2023-04-10T02:45:29;6.80;99.90
11855;DHT22;5987;53.140;8.904;2023-04-10T02:48:35;6.70;99.90
11855;DHT22;5987;53.140;8.904;2023-04-10T02:51:39;6.60;99.90
11855;DHT22;5987;53.140;8.904;2023-04-10T02:54:43;6.50;99.90
11855;DHT22;5987;53.140;8.904;2023-04-10T02:57:47;6.60;99.90
11855;DHT22;5987;53.140;8.904;2023-04-10T03:00:50;6.60;99.90
11855;DHT22;5987;53.140;8.904;2023-04-10T03:03:55;6.60;99.90
11855;DHT22;5987;53.140;8.904;2023-04-10T03:06:59;6.50;99.90
11855;DHT22;5987;53.140;8.904;2023-04-10T03:10:03;6.50;99.90
11855;DHT22;5987;53.140;8.904;2023-04-10T03:13:07;6.50;99.90
11855;DHT22;5987;53.140;8.904;2023-04-10T03:16:11;6.50;99.90
11855;DHT22;5987;53.140;8.904;2023-04-10T03:19:16;6.50;99.90
11855;DHT22;5987;53.140;8.904;2023-04-10T03:22:20;6.50;99.90
11855;DHT22;5987;53.140;8.904;2023-04-10T03:25:23;6.60;99.90
11855;DHT22;5987;53.140;8.904;2023-04-10T03:28:27;6.60;99.90
11855;DHT22;5987;53.140;8.904;2023-04-10T03:31:31;6.60;99.90
11855;DHT22;5987;53.140;8.904;2023-04-10T03:34:38;6.60;99.90
11855;DHT22;5987;53.140;8.904;2023-04-10T03:37:41;6.60;99.90
11855;DHT22;5987;53.140;8.904;2023-04-10T03:40:45;6.70;99.90
11855;DHT22;5987;53.140;8.904;2023-04-10T03:43:48;6.80;99.90
11855;DHT22;5987;53.140;8.904;2023-04-10T03:46:52;6.70;99.90
11855;DHT22;5987;53.140;8.904;2023-04-10T03:49:57;6.70;99.90
11855;DHT22;5987;53.140;8.904;2023-04-10T03:53:00;6.70;99.90
11855;DHT22;5987;53.140;8.904;2023-04-10T03:56:05;6.70;99.90
11855;DHT22;5987;53.140;8.904;2023-04-10T03:59:09;6.70;99.90
11855;DHT22;5987;53.140;8.904;2023-04-10T04:02:13;6.70;99.90
11855;DHT22;5987;53.140;8.904;2023-04-10T04:05:18;6.70;99.90
11855;DHT22;5987;53.140;8.904;2023-04-10T04:08:22;6.60;99.90
11855;DHT22;5987;53.140;8.904;2023-04-10T04:11:25;6.70;99.90
11855;DHT22;5987;53.140;8.904;2023-04-10T04:14:29;6.60;99.90
11855;DHT22;5987;53.140;8.904;2023-04-10T04:17:33;6.70;99.90
11855;DHT22;5987;53.140;8.904;2023-04-10T04:20:38;6.60;99.90
11855;DHT22;5987;53.140;8.904;2023-04-10T04:23:41;6.50;99.90
11855;DHT22;5987;53.140;8.904;2023-04-10T04:26:45;6.50;99.90
11855;DHT22;5987;53.140;8.904;2023-04-10T04:29:48;6.50;99.90
11855;DHT22;5987;53.140;8.904;2023-04-10T04:32:52;6.50;99.90
11855;DHT22;5987;53.140;8.904;2023-04-10T04:35:57;6.50;99.90
11855;DHT22;5987;53.140;8.904;2023-04-10T04:39:01;6.50;99.90
11855;DHT22;5987;53.140;8.904;2023-04-10T04:42:04;6.50;99.90
11855;DHT22;5987;53.140;8.904;2023-04-10T04:45:09;6.50;99.90
11855;DHT22;5987;53.140;8.904;2023-04-10T04:48:13;6.50;99.90
11855;DHT22;5987;53.140;8.904;2023-04-10T04:51:18;6.50;99.90
11855;DHT22;5987;53.140;8.904;2023-04-10T04:54:21;6.50;99.90
11855;DHT22;5987;53.140;8.904;2023-04-10T04:57:25;6.50;99.90
11855;DHT22;5987;53.140;8.904;2023-04-10T05:00:29;6.60;99.90
11855;DHT22;5987;53.140;8.904;2023-04-10T05:03:32;6.60;99.90
11855;DHT22;5987;53.140;8.904;2023-04-10T05:06:37;6.60;99.90
11855;DHT22;5987;53.140;8.904;2023-04-10T05:09:41;6.60;99.90
11855;DHT22;5987;53.140;8.904;2023-04-10T05:12:44;6.70;99.90
11855;DHT22;5987;53.140;8.904;2023-04-10T05:15:48;6.70;99.90
11855;DHT22;5987;53.140;8.904;2023-04-10T05:18:52;6.80;99.90
11855;DHT22;5987;53.140;8.904;2023-04-10T05:21:58;6.90;99.90
11855;DHT22;5987;53.140;8.904;2023-04-10T05:25:02;6.90;99.90
11855;DHT22;5987;53.140;8.904;2023-04-10T05:28:06;6.90;99.90
11855;DHT22;5987;53.140;8.904;2023-04-10T05:31:09;6.90;99.90
11855;DHT22;5987;53.140;8.904;2023-04-10T05:34:13;7.00;99.90
11855;DHT22;5987;53.140;8.904;2023-04-10T05:37:18;7.00;99.90
11855;DHT22;5987;53.140;8.904;2023-04-10T05:40:22;6.90;99.90
11855;DHT22;5987;53.140;8.904;2023-04-10T05:43:25;7.00;99.90
11855;DHT22;5987;53.140;8.904;2023-04-10T05:46:29;6.90;99.90
11855;DHT22;5987;53.140;8.904;2023-04-10T05:49:32;7.00;99.90
11855;DHT22;5987;53.140;8.904;2023-04-10T05:52:37;7.00;99.90
11855;DHT22;5987;53.140;8.904;2023-04-10T05:55:41;7.10;99.90
11855;DHT22;5987;53.140;8.904;2023-04-10T05:58:44;7.20;99.90
11855;DHT22;5987;53.140;8.904;2023-04-10T06:01:48;7.20;99.90
11855;DHT22;5987;53.140;8.904;2023-04-10T06:04:51;7.30;99.90
11855;DHT22;5987;53.140;8.904;2023-04-10T06:07:58;7.30;99.90
11855;DHT22;5987;53.140;8.904;2023-04-10T06:11:02;7.40;99.90
11855;DHT22;5987;53.140;8.904;2023-04-10T06:14:05;7.50;99.90
11855;DHT22;5987;53.140;8.904;2023-04-10T06:17:09;7.50;99.90
11855;DHT22;5987;53.140;8.904;2023-04-10T06:20:13;7.70;99.90
11855;DHT22;5987;53.140;8.904;2023-04-10T06:23:18;7.80;99.90
11855;DHT22;5987;53.140;8.904;2023-04-10T06:26:22;7.80;99.90
11855;DHT22;5987;53.140;8.904;2023-04-10T06:29:26;8.00;99.90
11855;DHT22;5987;53.140;8.904;2023-04-10T06:32:30;8.10;99.90
11855;DHT22;5987;53.140;8.904;2023-04-10T06:35:35;8.20;99.90
11855;DHT22;5987;53.140;8.904;2023-04-10T06:38:40;8.50;99.90
11855;DHT22;5987;53.140;8.904;2023-04-10T06:41:44;8.70;99.90
11855;DHT22;5987;53.140;8.904;2023-04-10T06:44:47;8.80;99.90
11855;DHT22;5987;53.140;8.904;2023-04-10T06:47:51;8.80;99.90
11855;DHT22;5987;53.140;8.904;2023-04-10T06:50:55;9.00;99.90
11855;DHT22;5987;53.140;8.904;2023-04-10T06:54:02;9.10;99.90
11855;DHT22;5987;53.140;8.904;2023-04-10T06:57:06;9.40;99.90
11855;DHT22;5987;53.140;8.904;2023-04-10T07:00:10;9.50;99.90
11855;DHT22;5987;53.140;8.904;2023-04-10T07:03:14;9.60;99.90
11855;DHT22;5987;53.140;8.904;2023-04-10T07:06:18;9.70;99.90
11855;DHT22;5987;53.140;8.904;2023-04-10T07:09:24;9.90;99.90
11855;DHT22;5987;53.140;8.904;2023-04-10T07:12:29;10.10;99.90
11855;DHT22;5987;53.140;8.904;2023-04-10T07:15:33;10.40;99.90
11855;DHT22;5987;53.140;8.904;2023-04-10T07:18:36;10.40;99.90
11855;DHT22;5987;53.140;8.904;2023-04-10T07:21:42;10.60;99.90
11855;DHT22;5987;53.140;8.904;2023-04-10T07:24:48;10.80;99.90
11855;DHT22;5987;53.140;8.904;2023-04-10T07:27:52;11.00;99.90
11855;DHT22;5987;53.140;8.904;2023-04-10T07:30:55;10.90;99.90
11855;DHT22;5987;53.140;8.904;2023-04-10T07:33:59;11.00;99.90
11855;DHT22;5987;53.140;8.904;2023-04-10T07:37:04;11.20;99.90
11855;DHT22;5987;53.140;8.904;2023-04-10T07:40:10;11.30;99.90
11855;DHT22;5987;53.140;8.904;2023-04-10T07:43:17;11.50;99.90
11855;DHT22;5987;53.140;8.904;2023-04-10T07:46:21;11.80;99.90
11855;DHT22;5987;53.140;8.904;2023-04-10T07:49:25;12.00;99.90
11855;DHT22;5987;53.140;8.904;2023-04-10T07:52:28;12.00;99.90
11855;DHT22;5987;53.140;8.904;2023-04-10T07:55:41;12.30;99.90
11855;DHT22;5987;53.140;8.904;2023-04-10T07:58:46;12.70;99.90
11855;DHT22;5987;53.140;8.904;2023-04-10T08:01:50;12.80;99.90
11855;DHT22;5987;53.140;8.904;2023-04-10T08:04:53;13.00;99.90
11855;DHT22;5987;53.140;8.904;2023-04-10T08:07:58;13.30;99.90
11855;DHT22;5987;53.140;8.904;2023-04-10T08:11:05;13.70;99.90
11855;DHT22;5987;53.140;8.904;2023-04-10T08:14:10;13.70;99.90
11855;DHT22;5987;53.140;8.904;2023-04-10T08:17:19;13.70;99.90
11855;DHT22;5987;53.140;8.904;2023-04-10T08:20:23;13.70;99.90
11855;DHT22;5987;53.140;8.904;2023-04-10T08:23:26;14.00;99.90
11855;DHT22;5987;53.140;8.904;2023-04-10T08:26:31;13.70;99.90
11855;DHT22;5987;53.140;8.904;2023-04-10T08:29:35;14.10;99.90
11855;DHT22;5987;53.140;8.904;2023-04-10T08:32:39;14.00;99.90
11855;DHT22;5987;53.140;8.904;2023-04-10T08:35:46;14.40;99.90
11855;DHT22;5987;53.140;8.904;2023-04-10T08:38:50;14.40;99.90
11855;DHT22;5987;53.140;8.904;2023-04-10T08:41:55;14.50;99.90
11855;DHT22;5987;53.140;8.904;2023-04-10T08:44:58;14.80;99.90
11855;DHT22;5987;53.140;8.904;2023-04-10T08:48:04;15.00;99.90
11855;DHT22;5987;53.140;8.904;2023-04-10T08:51:12;15.20;99.90
11855;DHT22;5987;53.140;8.904;2023-04-10T08:54:25;15.00;99.90
11855;DHT22;5987;53.140;8.904;2023-04-10T08:57:32;15.10;99.90
11855;DHT22;5987;53.140;8.904;2023-04-10T09:00:41;15.20;99.90
11855;DHT22;5987;53.140;8.904;2023-04-10T09:03:47;15.20;99.90
11855;DHT22;5987;53.140;8.904;2023-04-10T09:06:51;15.20;99.90
11855;DHT22;5987;53.140;8.904;2023-04-10T09:09:56;15.30;99.90
11855;DHT22;5987;53.140;8.904;2023-04-10T09:13:01;15.50;99.90
11855;DHT22;5987;53.140;8.904;2023-04-10T09:16:05;15.80;99.90
11855;DHT22;5987;53.140;8.904;2023-04-10T09:19:09;15.70;99.90
11855;DHT22;5987;53.140;8.904;2023-04-10T09:22:14;15.90;99.90
11855;DHT22;5987;53.140;8.904;2023-04-10T09:25:32;16.10;99.90
11855;DHT22;5987;53.140;8.904;2023-04-10T09:28:54;15.80;99.60
11855;DHT22;5987;53.140;8.904;2023-04-10T09:31:59;15.80;98.80
11855;DHT22;5987;53.140;8.904;2023-04-10T09:35:03;16.00;99.90
11855;DHT22;5987;53.140;8.904;2023-04-10T09:38:15;16.30;98.40
11855;DHT22;5987;53.140;8.904;2023-04-10T09:41:20;16.10;97.10
11855;DHT22;5987;53.140;8.904;2023-04-10T09:44:33;16.40;97.60
11855;DHT22;5987;53.140;8.904;2023-04-10T09:47:39;16.50;96.80
11855;DHT22;5987;53.140;8.904;2023-04-10T09:50:43;16.60;95.20
11855;DHT22;5987;53.140;8.904;2023-04-10T09:53:48;16.60;96.00
11855;DHT22;5987;53.140;8.904;2023-04-10T09:56:52;16.40;94.60
11855;DHT22;5987;53.140;8.904;2023-04-10T09:59:59;16.30;94.30
11855;DHT22;5987;53.140;8.904;2023-04-10T10:03:07;16.30;93.30
11855;DHT22;5987;53.140;8.904;2023-04-10T10:06:13;16.20;94.60
11855;DHT22;5987;53.140;8.904;2023-04-10T10:09:17;16.10;92.40
11855;DHT22;5987;53.140;8.904;2023-04-10T10:12:23;16.20;92.30
11855;DHT22;5987;53.140;8.904;2023-04-10T10:15:42;16.30;91.80
11855;DHT22;5987;53.140;8.904;2023-04-10T10:18:53;16.40;90.90
11855;DHT22;5987;53.140;8.904;2023-04-10T10:22:03;16.60;90.80
11855;DHT22;5987;53.140;8.904;2023-04-10T10:25:10;16.70;91.90
11855;DHT22;5987;53.140;8.904;2023-04-10T10:28:15;16.70;90.20
11855;DHT22;5987;53.140;8.904;2023-04-10T10:31:24;16.80;90.80
11855;DHT22;5987;53.140;8.904;2023-04-10T10:34:28;16.90;88.40
11855;DHT22;5987;53.140;8.904;2023-04-10T10:37:34;16.80;89.40
11855;DHT22;5987;53.140;8.904;2023-04-10T10:40:44;16.90;88.50
11855;DHT22;5987;53.140;8.904;2023-04-10T10:44:10;17.10;87.50
11855;DHT22;5987;53.140;8.904;2023-04-10T10:47:23;17.10;86.50
11855;DHT22;5987;53.140;8.904;2023-04-10T10:50:51;17.20;86.40
11855;DHT22;5987;53.140;8.904;2023-04-10T10:53:59;17.30;85.70
11855;DHT22;5987;53.140;8.904;2023-04-10T10:57:02;17.50;85.70
11855;DHT22;5987;53.140;8.904;2023-04-10T11:00:10;17.60;82.30
11855;DHT22;5987;53.140;8.904;2023-04-10T11:03:27;17.50;81.90
11855;DHT22;5987;53.140;8.904;2023-04-10T11:06:51;17.60;80.80
11855;DHT22;5987;53.140;8.904;2023-04-10T11:09:54;17.60;80.10
11855;DHT22;5987;53.140;8.904;2023-04-10T11:13:17;17.80;81.70
11855;DHT22;5987;53.140;8.904;2023-04-10T11:16:22;17.80;79.80
11855;DHT22;5987;53.140;8.904;2023-04-10T11:19:59;17.40;77.30
11855;DHT22;5987;53.140;8.904;2023-04-10T11:23:09;17.20;78.70
11855;DHT22;5987;53.140;8.904;2023-04-10T11:26:36;17.20;79.10
11855;DHT22;5987;53.140;8.904;2023-04-10T11:29:42;17.20;78.60
11855;DHT22;5987;53.140;8.904;2023-04-10T11:32:45;17.20;77.60
11855;DHT22;5987;53.140;8.904;2023-04-10T11:35:53;17.30;78.50
11855;DHT22;5987;53.140;8.904;2023-04-10T11:39:00;17.40;78.30
11855;DHT22;5987;53.140;8.904;2023-04-10T11:42:06;17.50;78.90
11855;DHT22;5987;53.140;8.904;2023-04-10T11:45:26;17.80;79.00
11855;DHT22;5987;53.140;8.904;2023-04-10T11:48:30;17.90;77.60
11855;DHT22;5987;53.140;8.904;2023-04-10T11:51:36;17.70;76.70
11855;DHT22;5987;53.140;8.904;2023-04-10T11:54:47;17.80;76.20
11855;DHT22;5987;53.140;8.904;2023-04-10T11:57:51;17.70;75.60
11855;DHT22;5987;53.140;8.904;2023-04-10T12:00:56;17.60;74.80
11855;DHT22;5987;53.140;8.904;2023-04-10T12:04:00;17.60;74.20
11855;DHT22;5987;53.140;8.904;2023-04-10T12:07:05;17.40;74.20
11855;DHT22;5987;53.140;8.904;2023-04-10T12:10:09;16.80;75.10
11855;DHT22;5987;53.140;8.904;2023-04-10T12:13:23;17.60;75.90
11855;DHT22;5987;53.140;8.904;2023-04-10T12:16:28;17.50;74.20
11855;DHT22;5987;53.140;8.904;2023-04-10T12:19:32;17.40;74.10
11855;DHT22;5987;53.140;8.904;2023-04-10T12:22:38;17.40;75.70
11855;DHT22;5987;53.140;8.904;2023-04-10T12:25:42;17.50;74.70
11855;DHT22;5987;53.140;8.904;2023-04-10T12:28:51;17.60;74.30
11855;DHT22;5987;53.140;8.904;2023-04-10T12:31:56;17.70;74.20
11855;DHT22;5987;53.140;8.904;2023-04-10T12:35:01;17.90;72.50
11855;DHT22;5987;53.140;8.904;2023-04-10T12:38:06;18.00;72.20
11855;DHT22;5987;53.140;8.904;2023-04-10T12:41:10;18.30;71.80
11855;DHT22;5987;53.140;8.904;2023-04-10T12:44:14;18.40;70.10
11855;DHT22;5987;53.140;8.904;2023-04-10T12:47:20;18.10;68.70
11855;DHT22;5987;53.140;8.904;2023-04-10T12:50:24;18.10;70.30
11855;DHT22;5987;53.140;8.904;2023-04-10T12:53:30;18.10;70.00
11855;DHT22;5987;53.140;8.904;2023-04-10T12:56:40;18.00;68.80
11855;DHT22;5987;53.140;8.904;2023-04-10T12:59:44;18.00;68.90
11855;DHT22;5987;53.140;8.904;2023-04-10T13:02:48;18.20;69.70
11855;DHT22;5987;53.140;8.904;2023-04-10T13:05:52;18.40;68.50
11855;DHT22;5987;53.140;8.904;2023-04-10T13:08:57;18.30;65.70
11855;DHT22;5987;53.140;8.904;2023-04-10T13:12:01;18.50;66.90
11855;DHT22;5987;53.140;8.904;2023-04-10T13:15:08;18.40;67.20
11855;DHT22;5987;53.140;8.904;2023-04-10T13:18:12;18.40;66.40
11855;DHT22;5987;53.140;8.904;2023-04-10T13:21:16;18.40;65.20
11855;DHT22;5987;53.140;8.904;2023-04-10T13:24:25;18.30;65.30
11855;DHT22;5987;53.140;8.904;2023-04-10T13:27:28;18.30;65.20
11855;DHT22;5987;53.140;8.904;2023-04-10T13:30:32;18.20;66.10
11855;DHT22;5987;53.140;8.904;2023-04-10T13:33:35;18.40;66.00
11855;DHT22;5987;53.140;8.904;2023-04-10T13:36:39;18.50;67.10
11855;DHT22;5987;53.140;8.904;2023-04-10T13:39:44;18.70;65.60
11855;DHT22;5987;53.140;8.904;2023-04-10T13:42:48;18.70;66.70
11855;DHT22;5987;53.140;8.904;2023-04-10T13:45:51;18.50;65.50
11855;DHT22;5987;53.140;8.904;2023-04-10T13:48:56;18.40;66.10
11855;DHT22;5987;53.140;8.904;2023-04-10T13:51:59;18.40;64.40
11855;DHT22;5987;53.140;8.904;2023-04-10T13:55:06;18.50;65.80
11855;DHT22;5987;53.140;8.904;2023-04-10T13:58:10;18.60;64.50
11855;DHT22;5987;53.140;8.904;2023-04-10T14:01:14;18.40;63.60
11855;DHT22;5987;53.140;8.904;2023-04-10T14:04:17;18.60;65.40
11855;DHT22;5987;53.140;8.904;2023-04-10T14:07:21;18.70;65.50
11855;DHT22;5987;53.140;8.904;2023-04-10T14:10:26;18.60;64.90
11855;DHT22;5987;53.140;8.904;2023-04-10T14:13:30;18.70;66.70
11855;DHT22;5987;53.140;8.904;2023-04-10T14:16:34;18.80;68.00
11855;DHT22;5987;53.140;8.904;2023-04-10T14:19:37;19.00;66.30
11855;DHT22;5987;53.140;8.904;2023-04-10T14:22:41;19.00;66.90
11855;DHT22;5987;53.140;8.904;2023-04-10T14:25:48;19.00;69.10
11855;DHT22;5987;53.140;8.904;2023-04-10T14:28:52;18.90;66.50
11855;DHT22;5987;53.140;8.904;2023-04-10T14:31:58;19.00;66.30
11855;DHT22;5987;53.140;8.904;2023-04-10T14:35:02;18.90;67.50
11855;DHT22;5987;53.140;8.904;2023-04-10T14:38:06;19.10;64.10
11855;DHT22;5987;53.140;8.904;2023-04-10T14:41:11;19.00;65.20
11855;DHT22;5987;53.140;8.904;2023-04-10T14:44:14;18.90;64.80
11855;DHT22;5987;53.140;8.904;2023-04-10T14:47:18;18.90;62.30
11855;DHT22;5987;53.140;8.904;2023-04-10T14:50:21;19.10;64.10
11855;DHT22;5987;53.140;8.904;2023-04-10T14:53:25;19.20;63.10
11855;DHT22;5987;53.140;8.904;2023-04-10T14:56:30;19.50;64.50
11855;DHT22;5987;53.140;8.904;2023-04-10T14:59:34;19.40;63.30
11855;DHT22;5987;53.140;8.904;2023-04-10T15:02:37;19.40;62.60
11855;DHT22;5987;53.140;8.904;2023-04-10T15:05:41;19.10;62.90
11855;DHT22;5987;53.140;8.904;2023-04-10T15:08:45;18.80;61.30
11855;DHT22;5987;53.140;8.904;2023-04-10T15:11:50;18.60;62.50
11855;DHT22;5987;53.140;8.904;2023-04-10T15:14:56;18.50;63.30
11855;DHT22;5987;53.140;8.904;2023-04-10T15:17:59;18.50;63.20
11855;DHT22;5987;53.140;8.904;2023-04-10T15:21:03;18.20;64.30
11855;DHT22;5987;53.140;8.904;2023-04-10T15:24:07;18.10;65.80
11855;DHT22;5987;53.140;8.904;2023-04-10T15:27:12;18.00;65.10
11855;DHT22;5987;53.140;8.904;2023-04-10T15:30:16;18.10;65.90
11855;DHT22;5987;53.140;8.904;2023-04-10T15:33:20;18.00;66.10
11855;DHT22;5987;53.140;8.904;2023-04-10T15:36:23;18.00;65.70
11855;DHT22;5987;53.140;8.904;2023-04-10T15:39:27;17.90;65.30
11855;DHT22;5987;53.140;8.904;2023-04-10T15:42:33;18.00;67.00
11855;DHT22;5987;53.140;8.904;2023-04-10T15:45:37;18.10;67.50
11855;DHT22;5987;53.140;8.904;2023-04-10T15:48:40;18.20;67.40
11855;DHT22;5987;53.140;8.904;2023-04-10T15:51:44;18.10;67.20
11855;DHT22;5987;53.140;8.904;2023-04-10T15:54:49;18.20;68.00
11855;DHT22;5987;53.140;8.904;2023-04-10T15:57:55;17.90;68.00
11855;DHT22;5987;53.140;8.904;2023-04-10T16:01:00;17.80;68.60
11855;DHT22;5987;53.140;8.904;2023-04-10T16:04:04;17.70;69.30
11855;DHT22;5987;53.140;8.904;2023-04-10T16:07:07;17.50;70.40
11855;DHT22;5987;53.140;8.904;2023-04-10T16:10:11;17.50;70.00
11855;DHT22;5987;53.140;8.904;2023-04-10T16:13:16;17.50;70.10
11855;DHT22;5987;53.140;8.904;2023-04-10T16:16:20;17.40;70.00
11855;DHT22;5987;53.140;8.904;2023-04-10T16:19:23;17.50;70.90
11855;DHT22;5987;53.140;8.904;2023-04-10T16:22:27;17.40;70.00
11855;DHT22;5987;53.140;8.904;2023-04-10T16:25:31;17.40;70.30
11855;DHT22;5987;53.140;8.904;2023-04-10T16:28:36;17.30;70.10
11855;DHT22;5987;53.140;8.904;2023-04-10T16:31:39;17.20;70.40
11855;DHT22;5987;53.140;8.904;2023-04-10T16:34:43;17.20;70.40
11855;DHT22;5987;53.140;8.904;2023-04-10T16:37:47;17.20;70.90
11855;DHT22;5987;53.140;8.904;2023-04-10T16:40:50;17.20;71.90
11855;DHT22;5987;53.140;8.904;2023-04-10T16:43:55;17.10;72.10
11855;DHT22;5987;53.140;8.904;2023-04-10T16:46:59;17.00;71.90
11855;DHT22;5987;53.140;8.904;2023-04-10T16:50:05;17.00;72.70
11855;DHT22;5987;53.140;8.904;2023-04-10T16:53:09;17.00;72.90
11855;DHT22;5987;53.140;8.904;2023-04-10T16:56:13;16.90;72.30
11855;DHT22;5987;53.140;8.904;2023-04-10T16:59:18;17.00;73.30
11855;DHT22;5987;53.140;8.904;2023-04-10T17:02:22;17.00;73.60
11855;DHT22;5987;53.140;8.904;2023-04-10T17:05:33;17.00;73.00
11855;DHT22;5987;53.140;8.904;2023-04-10T17:08:37;16.80;73.30
11855;DHT22;5987;53.140;8.904;2023-04-10T17:11:41;16.80;74.10
11855;DHT22;5987;53.140;8.904;2023-04-10T17:14:46;16.70;74.30
11855;DHT22;5987;53.140;8.904;2023-04-10T17:17:50;16.70;73.90
11855;DHT22;5987;53.140;8.904;2023-04-10T17:20:55;16.60;74.20
11855;DHT22;5987;53.140;8.904;2023-04-10T17:23:58;16.60;73.50
11855;DHT22;5987;53.140;8.904;2023-04-10T17:27:03;16.60;73.70
11855;DHT22;5987;53.140;8.904;2023-04-10T17:30:11;16.50;73.10
11855;DHT22;5987;53.140;8.904;2023-04-10T17:33:15;16.50;73.00
11855;DHT22;5987;53.140;8.904;2023-04-10T17:36:19;16.50;73.70
11855;DHT22;5987;53.140;8.904;2023-04-10T17:39:23;16.40;73.20
11855;DHT22;5987;53.140;8.904;2023-04-10T17:42:26;16.40;73.50
11855;DHT22;5987;53.140;8.904;2023-04-10T17:45:34;16.40;73.30
11855;DHT22;5987;53.140;8.904;2023-04-10T17:48:38;16.30;74.90
11855;DHT22;5987;53.140;8.904;2023-04-10T17:51:42;16.40;73.90
11855;DHT22;5987;53.140;8.904;2023-04-10T17:54:45;16.40;73.50
11855;DHT22;5987;53.140;8.904;2023-04-10T17:57:49;16.20;75.60
11855;DHT22;5987;53.140;8.904;2023-04-10T18:00:55;16.10;79.10
11855;DHT22;5987;53.140;8.904;2023-04-10T18:03:59;15.90;78.10
11855;DHT22;5987;53.140;8.904;2023-04-10T18:07:03;15.90;74.60
11855;DHT22;5987;53.140;8.904;2023-04-10T18:10:08;15.90;75.00
11855;DHT22;5987;53.140;8.904;2023-04-10T18:13:12;15.90;75.10
11855;DHT22;5987;53.140;8.904;2023-04-10T18:16:17;16.10;74.40
11855;DHT22;5987;53.140;8.904;2023-04-10T18:19:21;16.00;73.80
11855;DHT22;5987;53.140;8.904;2023-04-10T18:22:24;16.00;74.70
11855;DHT22;5987;53.140;8.904;2023-04-10T18:25:28;15.90;74.20
11855;DHT22;5987;53.140;8.904;2023-04-10T18:28:31;15.90;74.30
11855;DHT22;5987;53.140;8.904;2023-04-10T18:31:38;15.90;74.30
11855;DHT22;5987;53.140;8.904;2023-04-10T18:34:41;15.90;74.70
11855;DHT22;5987;53.140;8.904;2023-04-10T18:37:45;15.90;74.40
11855;DHT22;5987;53.140;8.904;2023-04-10T18:40:48;15.90;73.90
11855;DHT22;5987;53.140;8.904;2023-04-10T18:43:52;15.90;73.70
11855;DHT22;5987;53.140;8.904;2023-04-10T18:47:07;15.90;74.60
11855;DHT22;5987;53.140;8.904;2023-04-10T18:50:12;15.90;74.10
11855;DHT22;5987;53.140;8.904;2023-04-10T18:53:15;15.90;74.10
11855;DHT22;5987;53.140;8.904;2023-04-10T18:56:19;15.90;74.00
11855;DHT22;5987;53.140;8.904;2023-04-10T18:59:25;15.90;73.60
11855;DHT22;5987;53.140;8.904;2023-04-10T19:02:30;15.90;74.20
11855;DHT22;5987;53.140;8.904;2023-04-10T19:05:37;15.80;74.10
11855;DHT22;5987;53.140;8.904;2023-04-10T19:08:44;15.80;74.10
11855;DHT22;5987;53.140;8.904;2023-04-10T19:11:48;15.80;74.70
11855;DHT22;5987;53.140;8.904;2023-04-10T19:14:51;15.80;75.10
11855;DHT22;5987;53.140;8.904;2023-04-10T19:17:56;15.70;75.10
11855;DHT22;5987;53.140;8.904;2023-04-10T19:21:00;15.70;75.40
11855;DHT22;5987;53.140;8.904;2023-04-10T19:24:05;15.60;75.80
11855;DHT22;5987;53.140;8.904;2023-04-10T19:27:08;15.60;75.80
11855;DHT22;5987;53.140;8.904;2023-04-10T19:30:13;15.60;76.40
11855;DHT22;5987;53.140;8.904;2023-04-10T19:33:18;15.60;76.60
11855;DHT22;5987;53.140;8.904;2023-04-10T19:36:22;15.60;77.00
11855;DHT22;5987;53.140;8.904;2023-04-10T19:39:25;15.60;77.10
11855;DHT22;5987;53.140;8.904;2023-04-10T19:42:29;15.60;77.20
11855;DHT22;5987;53.140;8.904;2023-04-10T19:45:35;15.60;77.10
11855;DHT22;5987;53.140;8.904;2023-04-10T19:48:41;15.60;78.70
11855;DHT22;5987;53.140;8.904;2023-04-10T19:51:47;15.50;78.60
11855;DHT22;5987;53.140;8.904;2023-04-10T19:54:50;15.50;78.60
11855;DHT22;5987;53.140;8.904;2023-04-10T19:57:54;15.40;80.70
11855;DHT22;5987;53.140;8.904;2023-04-10T20:01:01;15.30;83.10